createdAt,value
2023-03-27T00:01:26.476Z,0.40
2023-03-27T00:03:53.461Z,0.37
2023-03-27T00:06:20.951Z,0.40
2023-03-27T00:08:51.700Z,0.30
2023-03-27T00:11:20.124Z,0.50
2023-03-27T00:13:51.425Z,0.40
2023-03-27T00:16:21.886Z,0.50
2023-03-27T00:18:48.737Z,0.50
2023-03-27T00:21:15.931Z,0.40
2023-03-27T00:23:42.684Z,0.60
2023-03-27T00:26:14.656Z,0.47
2023-03-27T00:28:42.258Z,0.53
2023-03-27T00:31:13.672Z,0.30
2023-03-27T00:33:42.388Z,1.17
2023-03-27T00:36:13.237Z,0.50
2023-03-27T00:38:40.069Z,0.40
2023-03-27T00:41:09.485Z,0.50
2023-03-27T00:43:41.049Z,0.50
2023-03-27T00:46:08.020Z,0.40
2023-03-27T00:48:36.956Z,0.50
2023-03-27T00:51:04.806Z,0.40
2023-03-27T00:53:31.566Z,0.57
2023-03-27T00:56:02.403Z,0.40
2023-03-27T00:58:35.202Z,0.33
2023-03-27T01:01:01.990Z,0.30
2023-03-27T01:03:31.556Z,0.40
2023-03-27T01:06:01.346Z,0.40
2023-03-27T01:08:30.267Z,0.30
2023-03-27T01:11:18.932Z,0.23
2023-03-27T01:13:45.642Z,0.23
2023-03-27T01:16:20.411Z,0.20
2023-03-27T01:18:56.506Z,0.47
2023-03-27T01:21:44.416Z,0.47
2023-03-27T01:24:14.536Z,0.37
2023-03-27T01:27:02.626Z,0.77
2023-03-27T01:29:38.294Z,0.40
2023-03-27T01:32:35.299Z,0.33
2023-03-27T01:35:13.229Z,0.23
2023-03-27T01:38:10.559Z,0.40
2023-03-27T01:40:47.545Z,0.40
2023-03-27T01:43:18.110Z,0.30
2023-03-27T01:45:44.722Z,0.50
2023-03-27T01:48:26.501Z,0.23
2023-03-27T01:51:08.195Z,0.50
2023-03-27T01:53:44.760Z,0.50
2023-03-27T01:56:26.820Z,0.43
2023-03-27T01:58:57.750Z,0.40
2023-03-27T02:01:29.808Z,0.50
2023-03-27T02:03:58.878Z,0.57
2023-03-27T02:06:31.411Z,0.40
2023-03-27T02:09:30.041Z,0.60
2023-03-27T02:12:16.496Z,0.53
2023-03-27T02:14:48.514Z,0.60
2023-03-27T02:17:18.148Z,0.60
2023-03-27T02:19:51.395Z,0.40
2023-03-27T02:22:18.586Z,0.60
2023-03-27T02:24:46.233Z,1.47
2023-03-27T02:27:20.475Z,1.40
2023-03-27T02:30:16.745Z,1.23
2023-03-27T02:33:09.631Z,1.47
2023-03-27T02:35:55.150Z,1.50
2023-03-27T02:38:41.480Z,1.60
2023-03-27T02:41:29.443Z,3.43
2023-03-27T02:44:21.796Z,4.10
2023-03-27T02:46:56.419Z,2.77
2023-03-27T02:49:31.336Z,3.13
2023-03-27T02:52:02.767Z,2.87
2023-03-27T02:54:33.890Z,2.47
2023-03-27T02:57:05.395Z,3.53
2023-03-27T02:59:35.842Z,4.30
2023-03-27T03:02:09.569Z,3.67
2023-03-27T03:04:41.608Z,4.90
2023-03-27T03:07:09.607Z,3.87
2023-03-27T03:09:40.548Z,5.47
2023-03-27T03:12:08.080Z,2.70
2023-03-27T03:14:37.923Z,4.13
2023-03-27T03:17:04.624Z,4.13
2023-03-27T03:19:31.354Z,5.50
2023-03-27T03:21:58.122Z,2.40
2023-03-27T03:24:24.779Z,3.10
2023-03-27T03:26:51.844Z,3.80
2023-03-27T03:29:19.231Z,3.20
2023-03-27T03:31:46.287Z,4.93
2023-03-27T03:34:16.059Z,5.57
2023-03-27T03:36:43.085Z,3.80
2023-03-27T03:39:09.745Z,2.87
2023-03-27T03:41:36.352Z,4.73
2023-03-27T03:44:03.236Z,6.10
2023-03-27T03:46:29.901Z,4.07
2023-03-27T03:48:58.951Z,4.03
2023-03-27T03:51:26.193Z,4.00
2023-03-27T03:53:52.942Z,3.07
2023-03-27T03:56:19.785Z,3.53
2023-03-27T03:58:46.468Z,2.27
2023-03-27T04:01:13.603Z,2.20
2023-03-27T04:03:41.486Z,3.07
2023-03-27T04:06:08.835Z,2.63
2023-03-27T04:08:35.499Z,5.30
2023-03-27T04:11:02.134Z,5.03
2023-03-27T04:13:28.810Z,3.17
2023-03-27T04:15:55.980Z,3.73
2023-03-27T04:18:32.385Z,3.20
2023-03-27T04:20:59.442Z,2.67
2023-03-27T04:23:32.071Z,1.60
2023-03-27T04:26:03.216Z,4.70
2023-03-27T04:28:34.606Z,5.33
2023-03-27T04:31:06.321Z,5.23
2023-03-27T04:33:34.262Z,3.13
2023-03-27T04:36:05.635Z,4.40
2023-03-27T04:38:36.729Z,3.33
2023-03-27T04:41:06.284Z,6.13
2023-03-27T04:43:36.535Z,3.67
2023-03-27T04:46:05.827Z,2.27
2023-03-27T04:48:32.916Z,3.33
2023-03-27T04:50:59.648Z,3.97
2023-03-27T04:53:30.122Z,3.63
2023-03-27T04:55:57.283Z,4.57
2023-03-27T04:58:25.749Z,3.70
2023-03-27T05:00:55.679Z,2.77
2023-03-27T05:03:27.784Z,3.13
2023-03-27T05:05:54.678Z,3.30
2023-03-27T05:08:21.580Z,2.50
2023-03-27T05:10:48.424Z,4.00
2023-03-27T05:13:15.377Z,3.77
2023-03-27T05:15:42.049Z,2.93
2023-03-27T05:18:09.104Z,3.93
2023-03-27T05:20:36.440Z,2.90
2023-03-27T05:23:03.207Z,4.20
2023-03-27T05:25:31.101Z,3.80
2023-03-27T05:27:58.073Z,1.93
2023-03-27T05:30:26.868Z,2.47
2023-03-27T05:32:54.386Z,2.97
2023-03-27T05:35:23.741Z,6.07
2023-03-27T05:37:52.500Z,1.30
2023-03-27T05:40:22.277Z,4.00
2023-03-27T05:42:50.468Z,3.83
2023-03-27T05:45:17.942Z,3.03
2023-03-27T05:47:55.949Z,2.77
2023-03-27T05:50:26.371Z,4.13
2023-03-27T05:53:04.500Z,2.10
2023-03-27T05:55:34.253Z,2.10
2023-03-27T05:58:00.897Z,2.30
2023-03-27T06:00:31.971Z,3.43
2023-03-27T06:03:00.442Z,4.83
2023-03-27T06:05:29.274Z,3.67
2023-03-27T06:07:59.745Z,3.43
2023-03-27T06:10:28.935Z,3.20
2023-03-27T06:13:08.941Z,2.23
2023-03-27T06:15:38.654Z,4.33
2023-03-27T06:18:05.600Z,2.37
2023-03-27T06:20:32.685Z,4.37
2023-03-27T06:23:00.147Z,2.40
2023-03-27T06:25:27.776Z,2.97
2023-03-27T06:27:54.532Z,2.70
2023-03-27T06:30:23.707Z,3.80
2023-03-27T06:32:57.446Z,1.23
2023-03-27T06:35:26.042Z,3.70
2023-03-27T06:37:53.574Z,1.67
2023-03-27T06:40:24.483Z,3.20
2023-03-27T06:43:06.001Z,4.00
2023-03-27T06:45:47.174Z,3.03
2023-03-27T06:48:21.612Z,3.13
2023-03-27T06:50:50.426Z,2.73
2023-03-27T06:55:48.118Z,3.97
2023-03-27T06:58:15.083Z,3.97
2023-03-27T07:00:43.921Z,2.43
2023-03-27T07:03:11.936Z,3.20
2023-03-27T07:05:40.775Z,1.80
2023-03-27T07:08:22.495Z,2.77
2023-03-27T07:10:59.646Z,1.23
2023-03-27T07:13:34.798Z,3.30
2023-03-27T07:16:01.481Z,2.57
2023-03-27T07:18:28.179Z,3.70
2023-03-27T07:20:55.049Z,6.03
2023-03-27T07:23:21.933Z,1.20
2023-03-27T07:25:49.998Z,2.23
2023-03-27T07:28:18.398Z,3.40
2023-03-27T07:30:45.208Z,3.53
2023-03-27T07:33:12.480Z,4.77
2023-03-27T07:35:47.106Z,2.50
2023-03-27T07:38:14.748Z,2.20
2023-03-27T07:40:43.566Z,4.83
2023-03-27T07:43:10.247Z,1.47
2023-03-27T07:45:37.064Z,3.30
2023-03-27T07:48:08.722Z,1.57
2023-03-27T07:50:35.998Z,3.40
2023-03-27T07:53:02.801Z,5.40
2023-03-27T07:55:32.211Z,3.07
2023-03-27T07:58:02.796Z,3.20
2023-03-27T08:00:31.467Z,3.73
2023-03-27T08:03:06.912Z,4.23
2023-03-27T08:05:33.900Z,3.67
2023-03-27T08:08:01.296Z,1.97
2023-03-27T08:10:27.969Z,2.33
2023-03-27T08:12:54.617Z,2.27
2023-03-27T08:15:21.559Z,3.37
2023-03-27T08:17:55.216Z,4.87
2023-03-27T08:20:24.009Z,1.27
2023-03-27T08:22:52.704Z,1.63
2023-03-27T08:25:19.923Z,1.77
2023-03-27T08:27:48.182Z,2.13
2023-03-27T08:30:16.932Z,3.93
2023-03-27T08:32:44.363Z,2.33
2023-03-27T08:35:12.173Z,2.10
2023-03-27T08:37:39.918Z,3.23
2023-03-27T08:40:13.882Z,4.13
2023-03-27T08:42:42.953Z,3.03
2023-03-27T08:45:14.663Z,6.63
2023-03-27T08:47:46.284Z,1.47
2023-03-27T08:50:26.212Z,1.43
2023-03-27T08:52:53.068Z,1.13
2023-03-27T08:55:28.675Z,1.27
2023-03-27T08:57:55.668Z,2.40
2023-03-27T09:00:25.098Z,2.00
2023-03-27T09:02:57.266Z,3.10
2023-03-27T09:05:34.389Z,1.67
2023-03-27T09:08:26.020Z,2.57
2023-03-27T09:11:05.440Z,3.43
2023-03-27T09:13:46.208Z,1.97
2023-03-27T09:16:23.177Z,4.13
2023-03-27T09:19:05.763Z,1.80
2023-03-27T09:21:40.594Z,2.10
2023-03-27T09:24:13.826Z,1.57
2023-03-27T09:26:41.189Z,2.20
2023-03-27T09:29:22.158Z,3.20
2023-03-27T09:31:51.117Z,3.40
2023-03-27T09:34:25.515Z,1.67
2023-03-27T09:36:52.292Z,3.17
2023-03-27T09:39:27.464Z,2.57
2023-03-27T09:41:57.947Z,2.83
2023-03-27T09:44:27.282Z,1.63
2023-03-27T09:46:59.040Z,2.00
2023-03-27T09:49:27.461Z,2.83
2023-03-27T09:51:55.462Z,2.67
2023-03-27T09:54:24.761Z,1.20
2023-03-27T09:57:00.020Z,1.90
2023-03-27T09:59:39.277Z,2.97
2023-03-27T10:02:28.432Z,2.67
2023-03-27T10:05:16.678Z,3.23
2023-03-27T10:07:44.063Z,1.00
2023-03-27T10:10:17.359Z,1.53
2023-03-27T10:12:58.393Z,2.37
2023-03-27T10:15:25.082Z,1.53
2023-03-27T10:17:51.856Z,1.90
2023-03-27T10:20:21.315Z,2.33
2023-03-27T10:22:56.615Z,1.47
2023-03-27T10:25:30.015Z,1.27
2023-03-27T10:28:07.901Z,1.80
2023-03-27T10:30:36.529Z,2.37
2023-03-27T10:33:03.470Z,1.80
2023-03-27T10:35:36.989Z,4.17
2023-03-27T10:38:07.467Z,0.90
2023-03-27T10:40:36.894Z,1.40
2023-03-27T10:43:07.496Z,1.53
2023-03-27T10:45:44.092Z,2.90
2023-03-27T10:48:16.348Z,1.73
2023-03-27T10:50:45.795Z,3.07
2023-03-27T10:53:26.970Z,2.20
2023-03-27T10:56:10.728Z,1.20
2023-03-27T10:58:41.379Z,1.93
2023-03-27T11:01:21.326Z,3.17
2023-03-27T11:04:30.264Z,2.13
2023-03-27T11:06:58.967Z,2.97
2023-03-27T11:09:31.198Z,2.20
2023-03-27T11:12:10.341Z,3.63
2023-03-27T11:15:07.634Z,2.47
2023-03-27T11:17:44.668Z,1.90
2023-03-27T11:20:24.940Z,1.43
2023-03-27T11:22:59.613Z,3.50
2023-03-27T11:25:41.009Z,1.53
2023-03-27T11:28:33.881Z,1.83
2023-03-27T11:31:27.858Z,2.13
2023-03-27T11:34:07.017Z,1.83
2023-03-27T11:36:59.609Z,1.73
2023-03-27T11:39:36.171Z,1.80
2023-03-27T11:42:10.484Z,2.20
2023-03-27T11:44:37.124Z,2.23
2023-03-27T11:47:44.284Z,1.93
2023-03-27T11:50:29.290Z,3.13
2023-03-27T11:53:23.712Z,1.47
2023-03-27T11:56:09.719Z,1.03
2023-03-27T11:59:02.910Z,1.93
2023-03-27T12:01:44.906Z,1.20
2023-03-27T12:04:36.602Z,1.73
2023-03-27T12:07:33.992Z,1.80
2023-03-27T12:10:28.761Z,2.23
2023-03-27T12:13:09.414Z,2.83
2023-03-27T12:16:15.053Z,1.97
2023-03-27T12:19:28.411Z,2.40
2023-03-27T12:22:25.905Z,0.93
2023-03-27T12:25:01.947Z,4.37
2023-03-27T12:27:47.326Z,2.53
2023-03-27T12:30:22.790Z,1.97
2023-03-27T12:33:04.633Z,1.00
2023-03-27T12:35:36.207Z,1.87
2023-03-27T12:38:06.207Z,1.40
2023-03-27T12:40:39.475Z,0.90
2023-03-27T12:43:09.050Z,2.03
2023-03-27T12:45:44.107Z,1.43
2023-03-27T12:48:19.178Z,2.10
2023-03-27T12:50:52.593Z,2.40
2023-03-27T12:53:23.269Z,1.87
2023-03-27T12:56:17.648Z,2.07
2023-03-27T12:58:49.217Z,2.97
2023-03-27T13:01:36.356Z,2.10
2023-03-27T13:04:18.088Z,1.93
2023-03-27T13:07:24.606Z,1.70
2023-03-27T13:09:56.579Z,1.63
2023-03-27T13:12:44.060Z,2.03
2023-03-27T13:15:50.825Z,2.07
2023-03-27T13:18:28.048Z,1.67
2023-03-27T13:21:10.664Z,1.40
2023-03-27T13:23:56.399Z,0.93
2023-03-27T13:26:47.779Z,2.33
2023-03-27T13:29:23.334Z,1.30
2023-03-27T13:31:49.987Z,1.97
2023-03-27T13:34:39.191Z,2.43
2023-03-27T13:37:16.279Z,2.33
2023-03-27T13:40:18.558Z,1.10
2023-03-27T13:42:48.252Z,1.17
2023-03-27T13:45:23.577Z,1.90
2023-03-27T13:47:59.282Z,3.27
2023-03-27T13:51:00.053Z,1.50
2023-03-27T13:54:05.185Z,1.03
2023-03-27T13:57:04.752Z,1.60
2023-03-27T14:00:00.874Z,1.60
2023-03-27T14:02:40.172Z,1.60
2023-03-27T14:05:16.239Z,2.57
2023-03-27T14:08:00.988Z,2.17
2023-03-27T14:11:05.767Z,1.97
2023-03-27T14:13:54.824Z,2.53
2023-03-27T14:16:52.414Z,1.17
2023-03-27T14:19:49.773Z,1.97
2023-03-27T14:22:23.592Z,1.27
2023-03-27T14:24:56.946Z,3.53
2023-03-27T14:27:24.502Z,1.37
2023-03-27T14:30:24.267Z,1.93
2023-03-27T14:32:51.136Z,0.90
2023-03-27T14:35:43.951Z,3.57
2023-03-27T14:38:22.059Z,1.10
2023-03-27T14:40:52.462Z,1.60
2023-03-27T14:43:21.231Z,1.13
2023-03-27T14:45:50.037Z,1.80
2023-03-27T14:48:37.548Z,1.80
2023-03-27T14:51:35.391Z,1.90
2023-03-27T14:54:05.898Z,1.67
2023-03-27T14:56:41.560Z,3.23
2023-03-27T14:59:23.432Z,1.00
2023-03-27T15:01:51.194Z,1.00
2023-03-27T15:04:19.722Z,1.70
2023-03-27T15:06:49.983Z,1.93
2023-03-27T15:09:24.099Z,1.67
2023-03-27T15:12:00.901Z,3.20
2023-03-27T15:14:29.675Z,1.80
2023-03-27T15:17:06.764Z,1.10
2023-03-27T15:19:45.434Z,1.67
2023-03-27T15:22:33.731Z,1.37
2023-03-27T15:25:08.715Z,1.40
2023-03-27T15:27:41.408Z,1.23
2023-03-27T15:30:43.509Z,2.20
2023-03-27T15:33:20.359Z,1.20
2023-03-27T15:35:51.728Z,1.30
2023-03-27T15:38:25.507Z,1.43
2023-03-27T15:41:01.109Z,1.40
2023-03-27T15:43:28.538Z,0.90
2023-03-27T15:46:13.545Z,1.17
2023-03-27T15:48:44.057Z,1.07
2023-03-27T15:51:13.932Z,0.90
2023-03-27T15:53:41.725Z,1.60
2023-03-27T15:56:35.556Z,1.60
2023-03-27T15:59:06.121Z,1.87
2023-03-27T16:01:40.014Z,1.13
2023-03-27T16:04:16.608Z,0.93
2023-03-27T16:06:55.623Z,1.67
2023-03-27T16:09:22.685Z,1.00
2023-03-27T16:11:50.866Z,1.20
2023-03-27T16:14:31.712Z,1.57
2023-03-27T16:17:20.714Z,1.97
2023-03-27T16:19:56.959Z,2.57
2023-03-27T16:22:37.512Z,2.07
2023-03-27T16:25:08.005Z,2.50
2023-03-27T16:27:45.406Z,1.97
2023-03-27T16:30:33.053Z,2.50
2023-03-27T16:33:01.316Z,2.00
2023-03-27T16:35:32.499Z,2.50
2023-03-27T16:38:00.203Z,1.27
2023-03-27T16:40:27.929Z,1.77
2023-03-27T16:42:55.771Z,1.60
2023-03-27T16:45:23.070Z,1.40
2023-03-27T16:47:53.123Z,1.03
2023-03-27T16:50:22.921Z,1.00
2023-03-27T16:52:50.043Z,1.00
2023-03-27T16:55:17.465Z,1.00
2023-03-27T16:57:48.659Z,0.90
2023-03-27T17:00:16.570Z,1.10
2023-03-27T17:02:44.768Z,1.40
2023-03-27T17:05:11.769Z,0.80
2023-03-27T17:07:39.016Z,1.60
2023-03-27T17:10:06.622Z,1.20
2023-03-27T17:12:33.382Z,0.80
2023-03-27T17:15:00.826Z,1.07
2023-03-27T17:17:27.657Z,0.93
2023-03-27T17:19:54.625Z,1.10
2023-03-27T17:22:21.522Z,1.00
2023-03-27T17:24:56.136Z,0.70
2023-03-27T17:27:25.856Z,0.80
2023-03-27T17:29:52.651Z,0.80
2023-03-27T17:32:19.432Z,0.80
2023-03-27T17:34:46.585Z,0.80
2023-03-27T17:37:13.247Z,1.93
2023-03-27T17:39:40.987Z,0.80
2023-03-27T17:42:07.627Z,0.67
2023-03-27T17:44:34.296Z,0.97
2023-03-27T17:47:01.264Z,0.90
2023-03-27T17:49:29.948Z,1.00
2023-03-27T17:51:56.833Z,0.83
2023-03-27T17:54:23.750Z,1.60
2023-03-27T17:56:50.691Z,1.10
2023-03-27T17:59:17.928Z,1.27
2023-03-27T18:01:45.741Z,1.23
2023-03-27T18:04:12.458Z,0.90
2023-03-27T18:06:39.133Z,1.37
2023-03-27T18:09:07.668Z,1.40
2023-03-27T18:11:34.327Z,1.30
2023-03-27T18:14:01.269Z,1.40
2023-03-27T18:16:28.028Z,1.50
2023-03-27T18:18:55.644Z,1.70
2023-03-27T18:21:22.514Z,1.63
2023-03-27T18:23:50.531Z,1.60
2023-03-27T18:26:18.700Z,2.20
2023-03-27T18:28:45.394Z,2.60
2023-03-27T18:31:12.838Z,2.17
2023-03-27T18:33:39.590Z,2.57
2023-03-27T18:36:10.437Z,2.10
2023-03-27T18:38:41.692Z,1.90
2023-03-27T18:41:09.196Z,1.90
2023-03-27T18:43:36.536Z,2.70
2023-03-27T18:46:08.318Z,2.20
2023-03-27T18:48:35.387Z,1.90
2023-03-27T18:51:04.244Z,2.10
2023-03-27T18:53:31.354Z,2.30
2023-03-27T18:55:59.031Z,2.03
2023-03-27T18:58:27.689Z,1.97
2023-03-27T19:00:58.064Z,2.20
2023-03-27T19:03:26.798Z,2.33
2023-03-27T19:05:53.596Z,2.30
2023-03-27T19:08:21.563Z,3.80
2023-03-27T19:10:48.506Z,3.50
2023-03-27T19:13:16.074Z,3.67
2023-03-27T19:15:43.609Z,2.70
2023-03-27T19:18:10.936Z,2.30
2023-03-27T19:20:37.577Z,2.40
2023-03-27T19:23:05.730Z,2.57
2023-03-27T19:25:36.863Z,1.97
2023-03-27T19:28:05.379Z,2.07
2023-03-27T19:30:33.027Z,1.57
2023-03-27T19:33:02.733Z,1.73
2023-03-27T19:35:29.411Z,1.63
2023-03-27T19:37:56.153Z,1.60
2023-03-27T19:40:23.168Z,1.40
2023-03-27T19:42:50.042Z,1.70
2023-03-27T19:45:17.326Z,1.60
2023-03-27T19:47:44.028Z,1.40
2023-03-27T19:50:11.667Z,1.47
2023-03-27T19:52:38.893Z,1.30
2023-03-27T19:55:07.751Z,2.67
2023-03-27T19:57:34.564Z,1.30
2023-03-27T20:00:01.541Z,1.50
2023-03-27T20:02:28.343Z,1.10
2023-03-27T20:04:55.081Z,1.40
2023-03-27T20:07:21.745Z,1.37
2023-03-27T20:09:48.524Z,1.33
2023-03-27T20:12:15.923Z,1.43
2023-03-27T20:14:44.896Z,1.10
2023-03-27T20:17:27.659Z,1.00
2023-03-27T20:20:02.251Z,1.30
2023-03-27T20:22:31.583Z,1.10
2023-03-27T20:25:28.276Z,1.20
2023-03-27T20:27:57.545Z,1.40
2023-03-27T20:30:48.616Z,1.00
2023-03-27T20:33:17.723Z,1.30
2023-03-27T20:35:47.209Z,4.50
2023-03-27T20:38:16.185Z,7.30
2023-03-27T20:40:52.977Z,5.40
2023-03-27T20:43:24.522Z,2.97
2023-03-27T20:45:56.052Z,4.43
2023-03-27T20:48:24.393Z,3.93
2023-03-27T20:50:52.280Z,4.30
2023-03-27T20:53:25.925Z,1.67
2023-03-27T20:56:00.616Z,2.93
2023-03-27T20:58:27.637Z,3.07
2023-03-27T21:00:55.988Z,1.10
2023-03-27T21:03:23.306Z,1.60
2023-03-27T21:05:50.557Z,1.20
2023-03-27T21:08:17.266Z,1.10
2023-03-27T21:10:53.107Z,1.50
2023-03-27T21:13:20.222Z,2.23
2023-03-27T21:15:47.427Z,1.20
2023-03-27T21:18:14.177Z,1.10
2023-03-27T21:20:40.828Z,1.23
2023-03-27T21:23:07.483Z,0.80
2023-03-27T21:25:34.794Z,1.20
2023-03-27T21:28:01.608Z,1.10
2023-03-27T21:30:46.486Z,1.00
2023-03-27T21:33:17.965Z,1.10
2023-03-27T21:38:15.796Z,0.90
2023-03-27T21:40:42.891Z,0.80
2023-03-27T21:43:09.673Z,1.10
2023-03-27T21:45:36.602Z,1.33
2023-03-27T21:48:03.490Z,1.00
2023-03-27T21:50:30.238Z,0.90
2023-03-27T21:52:57.587Z,0.80
2023-03-27T21:55:24.298Z,1.13
2023-03-27T21:57:52.206Z,0.83
2023-03-27T22:00:19.624Z,1.03
2023-03-27T22:02:46.359Z,1.43
2023-03-27T22:05:13.134Z,0.80
2023-03-27T22:07:39.852Z,1.00
2023-03-27T22:10:07.128Z,1.57
2023-03-27T22:12:37.638Z,1.17
2023-03-27T22:15:06.949Z,1.10
2023-03-27T22:17:36.329Z,1.53
2023-03-27T22:20:04.808Z,1.77
2023-03-27T22:22:34.108Z,1.33
2023-03-27T22:25:01.549Z,1.27
2023-03-27T22:27:28.717Z,2.20
2023-03-27T22:29:56.206Z,1.10
2023-03-27T22:32:23.052Z,1.33
2023-03-27T22:34:49.857Z,0.90
2023-03-27T22:37:17.061Z,0.90
2023-03-27T22:39:43.851Z,1.57
2023-03-27T22:42:10.786Z,1.70
2023-03-27T22:44:37.479Z,1.03
2023-03-27T22:47:04.214Z,1.40
2023-03-27T22:49:30.945Z,1.07
2023-03-27T22:51:57.635Z,1.00
2023-03-27T22:54:24.380Z,1.07
2023-03-27T22:56:51.168Z,1.20
2023-03-27T22:59:17.800Z,1.20
2023-03-27T23:01:44.740Z,1.00
2023-03-27T23:04:11.429Z,1.10
2023-03-27T23:06:38.382Z,1.10
2023-03-27T23:09:05.314Z,1.30
2023-03-27T23:11:32.541Z,1.30
2023-03-27T23:13:59.793Z,0.90
2023-03-27T23:16:26.446Z,0.90
2023-03-27T23:18:53.096Z,1.00
2023-03-27T23:21:19.784Z,0.90
2023-03-27T23:23:46.818Z,1.07
2023-03-27T23:26:14.170Z,0.90
2023-03-27T23:28:41.915Z,0.90
2023-03-27T23:31:12.000Z,1.00
2023-03-27T23:33:43.750Z,0.97
2023-03-27T23:36:13.094Z,0.87
2023-03-27T23:38:41.375Z,1.10
2023-03-27T23:41:09.469Z,0.87
2023-03-27T23:43:36.694Z,1.10
2023-03-27T23:46:05.384Z,1.53
2023-03-27T23:48:32.160Z,2.07
2023-03-27T23:50:58.801Z,0.93
2023-03-27T23:53:26.689Z,1.00
2023-03-27T23:55:56.045Z,1.10
2023-03-27T23:58:23.253Z,1.20
